Wellsville, NY

3:46 PM EDT on July 29, 2016 (GMT -0400)
Willing | | Change Station

Elev 1744 ft 42.07 °N, 77.92 °W | Updated 6 seconds ago

Scattered Clouds
Scattered Clouds
87.4 °F
Feels Like 89 °F
N
0.0
Wind Variable Wind from North

Today
High -- | Low -- °F
--% Chance of Precip.
Yesterday
High -- | Low -- °F
Precip. -- in
Pressure 29.96 in
Visibility 10.0 miles
Clouds Few 4400 ft
Scattered Clouds 6000 ft
Scattered Clouds 7500 ft
Heat Index 89 °F
Dew Point 65 °F
Humidity 48%
Rainfall Not available.
Snow Depth Not available.
6:02 AM 8:33 PM
Waning Crescent, 19% visible
METAR KELZ 291856Z AUTO 04005KT 10SM FEW044 SCT060 SCT075 27/15 A3000 RMK AO2 SLP145 T02670150
Pressure 29.96 in
Visibility 10.0 miles
Clouds Few 4400 ft
Scattered Clouds 6000 ft
Scattered Clouds 7500 ft
Heat Index 89 °F
Dew Point 65 °F
Humidity 48%
Rainfall Not available.
Snow Depth Not available.
6:02 AM 8:33 PM
Waning Crescent, 19% visible
METAR KELZ 291856Z AUTO 04005KT 10SM FEW044 SCT060 SCT075 27/15 A3000 RMK AO2 SLP145 T02670150

10-Day Weather Forecast

Almanac

Astronomy

Jul. 29, 2016 Rise Set
Actual Time
Civil Twilight
Nautical Twilight
Astronomical Twilight
Moon
Length of Visible Light
Length of Day
Tomorrow will be .
, % of the Moon is Illuminated

Today's Extremes

State Highs State Lows

Community

WunderPhotos

Upload Photos

1,928,401 photos uploaded!

WunderBlog® & News

Nearby

Air Quality

  Air Quality AQ Index Pollutant
Not available.

Snow Depth

Station Depth Elevation

Earthquake Activity

City Distance Mag. Time & Date
Minimum magnitude displayed is 2.5.

Coastal Water Temperatures

Place Temperature

Stations

Nearby Weather Stations

Station Location Temp. Windchill Dew Point Humidity Wind Precip. Elev Updated Type
                   

Watches & Warnings

There are currently no watches in effect.